Time;durP1;ratioP1;P1;durP2;ratioP2;P2;SDS_P1;SDS_P2;PMS_P1;PMS_P2;Temp;Humidity;BMP_temperature;BMP_pressure;BME280_temperature;BME280_humidity;BME280_pressure;Samples;Min_cycle;Max_cycle;Signal;HPM_P1;HPM_P2
2023/12/26 00:02:16;;;;;;;5.53;2.65;;;;;;;11.04;71.04;99326.84;5011640;28;97406;-82
2023/12/26 00:04:42;;;;;;;6.07;3.30;;;;;;;11.13;70.93;99333.38;5012480;28;100049;-82
2023/12/26 00:07:07;;;;;;;5.40;3.15;;;;;;;11.07;71.14;99345.06;5013175;28;97179;-82
2023/12/26 00:09:33;;;;;;;6.57;3.55;;;;;;;11.20;70.61;99338.25;5016952;28;96877;-82
2023/12/26 00:11:58;;;;;;;8.50;4.07;;;;;;;11.20;70.53;99346.13;5008981;28;101502;-82
2023/12/26 00:14:24;;;;;;;7.35;2.83;;;;;;;11.13;70.67;99349.16;5018557;28;97383;-83
2023/12/26 00:16:49;;;;;;;6.97;3.63;;;;;;;11.21;70.52;99339.09;5013123;28;96767;-82
2023/12/26 00:19:15;;;;;;;6.53;3.22;;;;;;;11.30;70.29;99346.50;5010671;28;97280;-82
2023/12/26 00:21:40;;;;;;;6.80;3.17;;;;;;;11.32;70.55;99348.13;4991177;28;101052;-82
2023/12/26 00:24:06;;;;;;;7.25;3.55;;;;;;;11.35;70.33;99335.75;4995745;28;101323;-82
2023/12/26 00:26:32;;;;;;;8.23;3.35;;;;;;;11.36;70.05;99340.91;5009922;28;97230;-82
2023/12/26 00:28:59;;;;;;;5.20;2.90;;;;;;;11.30;69.94;99317.59;5012213;28;96866;-82
2023/12/26 00:31:25;;;;;;;6.63;3.03;;;;;;;11.23;69.90;99289.97;5013242;28;101952;-82
2023/12/26 00:33:53;;;;;;;5.95;2.88;;;;;;;11.32;70.05;99308.69;5013532;28;101086;-82
2023/12/26 00:36:18;;;;;;;5.78;2.83;;;;;;;11.22;69.79;99278.56;5011894;28;96815;-82
2023/12/26 00:38:45;;;;;;;5.75;3.05;;;;;;;11.29;69.96;99281.75;5010734;28;97002;-82
2023/12/26 00:41:14;;;;;;;5.72;2.63;;;;;;;11.23;70.03;99285.56;5017087;28;97348;-82
2023/12/26 00:43:40;;;;;;;6.45;2.50;;;;;;;11.33;70.10;99317.44;5003323;28;101247;-83
2023/12/26 00:46:06;;;;;;;5.40;2.75;;;;;;;11.37;70.29;99323.38;5012051;28;97219;-82
2023/12/26 00:48:32;;;;;;;3.92;2.63;;;;;;;11.44;69.61;99322.13;5021962;28;96855;-82
2023/12/26 00:50:58;;;;;;;5.45;2.83;;;;;;;11.42;69.96;99310.84;5016907;28;98543;-82
2023/12/26 00:53:24;;;;;;;6.25;2.95;;;;;;;11.42;69.54;99313.47;4999423;28;100975;-83
2023/12/26 00:55:50;;;;;;;6.15;2.45;;;;;;;11.32;69.89;99299.97;5018570;27;97365;-82
2023/12/26 00:58:16;;;;;;;4.32;2.70;;;;;;;11.43;69.75;99313.41;5020409;28;97356;-82
2023/12/26 01:00:41;;;;;;;4.03;1.90;;;;;;;11.46;69.31;99305.34;5011766;28;101421;-82
2023/12/26 01:03:09;;;;;;;3.55;1.92;;;;;;;11.50;69.60;99311.28;5012602;28;97406;-82
2023/12/26 01:05:34;;;;;;;3.25;1.70;;;;;;;11.28;69.97;99286.13;4993232;28;96746;-81
2023/12/26 01:08:00;;;;;;;3.47;2.03;;;;;;;11.43;70.38;99312.53;5007252;28;97457;-82
2023/12/26 01:10:25;;;;;;;2.90;1.83;;;;;;;11.32;70.98;99300.81;4996265;28;101166;-82
2023/12/26 01:12:51;;;;;;;3.88;1.83;;;;;;;11.29;71.34;99284.38;5002909;28;97984;-82
2023/12/26 01:15:16;;;;;;;4.57;2.20;;;;;;;11.45;70.91;99305.41;5027816;28;97396;-82
2023/12/26 01:17:42;;;;;;;3.30;1.77;;;;;;;11.49;70.91;99294.66;5013297;28;96885;-82
2023/12/26 01:20:08;;;;;;;3.83;1.95;;;;;;;11.49;70.11;99286.78;5030061;28;97471;-82
2023/12/26 01:22:33;;;;;;;2.42;1.63;;;;;;;11.57;70.02;99283.72;5012851;28;101589;-82
2023/12/26 01:24:59;;;;;;;5.32;2.15;;;;;;;11.57;69.85;99281.94;5030176;28;96725;-82
2023/12/26 01:27:24;;;;;;;4.05;2.22;;;;;;;11.66;69.81;99277.13;5008441;28;97326;-82
2023/12/26 01:29:50;;;;;;;4.57;2.15;;;;;;;11.74;68.82;99269.66;5007116;28;100908;-82
2023/12/26 01:32:16;;;;;;;4.10;1.92;;;;;;;11.73;69.00;99270.59;5028424;28;97980;-82
2023/12/26 01:34:41;;;;;;;3.47;1.65;;;;;;;11.78;68.71;99265.94;5025576;28;97063;-82
2023/12/26 01:37:07;;;;;;;3.20;1.83;;;;;;;11.76;68.78;99273.06;4992896;28;97377;-82
2023/12/26 01:39:32;;;;;;;5.40;2.00;;;;;;;11.70;68.64;99271.63;5024961;28;97774;-82
2023/12/26 01:41:58;;;;;;;3.53;1.73;;;;;;;11.63;68.65;99259.72;5029377;28;97920;-82
2023/12/26 01:44:23;;;;;;;6.00;1.70;;;;;;;11.66;68.87;99267.44;5020251;28;96757;-82
2023/12/26 01:46:49;;;;;;;4.65;2.08;;;;;;;11.50;68.53;99235.06;5028855;28;96897;-82
2023/12/26 01:49:15;;;;;;;4.13;2.20;;;;;;;11.54;68.30;99245.31;5022027;28;98111;-82
2023/12/26 01:51:42;;;;;;;4.07;1.30;;;;;;;11.54;68.41;99250.56;5011949;28;101317;-83
2023/12/26 01:54:08;;;;;;;2.60;1.33;;;;;;;11.44;68.81;99241.50;5011675;28;97414;-82
2023/12/26 01:56:34;;;;;;;2.20;1.17;;;;;;;11.38;69.00;99241.84;5012071;28;97405;-82
2023/12/26 01:58:59;;;;;;;4.15;1.35;;;;;;;11.40;68.94;99241.75;4995082;28;101222;-82
2023/12/26 02:01:25;;;;;;;1.42;1.10;;;;;;;11.35;68.99;99239.38;5030801;27;97926;-82
2023/12/26 02:03:54;;;;;;;2.38;1.48;;;;;;;11.25;69.19;99212.75;5029649;28;96804;-82
2023/12/26 02:06:20;;;;;;;2.05;1.30;;;;;;;11.34;69.11;99227.16;5029079;28;97480;-82
2023/12/26 02:08:46;;;;;;;1.75;1.23;;;;;;;11.27;69.38;99224.03;5030113;27;97924;-82
2023/12/26 02:11:11;;;;;;;2.50;1.40;;;;;;;11.16;69.29;99201.91;5033600;27;97884;-82
2023/12/26 02:13:37;;;;;;;2.70;1.38;;;;;;;11.34;69.18;99219.28;5018588;28;97362;-84
2023/12/26 02:16:08;;;;;;;1.67;1.30;;;;;;;11.32;69.52;99216.75;4982108;28;97670;-84
2023/12/26 02:18:34;;;;;;;2.75;1.40;;;;;;;11.42;68.74;99232.00;5023526;28;98299;-84
2023/12/26 02:21:00;;;;;;;2.28;1.40;;;;;;;11.35;69.34;99217.53;5033887;27;97384;-84
2023/12/26 02:23:27;;;;;;;1.00;0.80;;;;;;;11.35;69.31;99217.53;5022517;28;96877;-84
2023/12/26 02:25:54;;;;;;;1.77;1.02;;;;;;;11.37;69.30;99207.75;5032398;28;96963;-84
2023/12/26 02:28:19;;;;;;;1.70;0.88;;;;;;;11.30;69.37;99178.34;5033379;27;97882;-84
2023/12/26 02:30:45;;;;;;;1.63;1.20;;;;;;;11.30;69.33;99175.72;5011810;28;100963;-84
2023/12/26 02:33:12;;;;;;;1.67;0.90;;;;;;;11.29;68.93;99166.16;5015535;28;96730;-84
2023/12/26 02:35:37;;;;;;;1.75;0.73;;;;;;;11.29;69.25;99158.28;5032491;28;97437;-83
2023/12/26 02:38:03;;;;;;;1.52;0.80;;;;;;;11.44;68.83;99191.56;5015081;28;101044;-84
2023/12/26 02:40:29;;;;;;;1.33;0.80;;;;;;;11.33;69.19;99157.16;5032265;28;98060;-84
2023/12/26 02:42:55;;;;;;;1.45;1.00;;;;;;;11.51;68.83;99184.19;5032505;28;97401;-81
2023/12/26 02:45:20;;;;;;;2.08;0.90;;;;;;;11.48;68.54;99169.44;5032477;28;97433;-81
2023/12/26 02:47:47;;;;;;;1.42;0.85;;;;;;;11.36;68.33;99157.00;4994605;28;101406;-82
2023/12/26 02:50:12;;;;;;;0.93;0.63;;;;;;;11.47;68.55;99173.00;5028071;27;98546;-81
2023/12/26 02:52:39;;;;;;;3.40;0.90;;;;;;;11.54;68.52;99166.47;5018279;27;97710;-81
2023/12/26 02:55:05;;;;;;;1.08;0.85;;;;;;;11.57;68.46;99170.69;5018700;27;97203;-82
2023/12/26 02:57:31;;;;;;;2.08;0.90;;;;;;;11.38;68.06;99159.53;4999432;27;101122;-81
2023/12/26 02:59:57;;;;;;;2.83;1.20;;;;;;;11.59;68.07;99171.47;5014591;28;101022;-82
2023/12/26 03:02:22;;;;;;;2.45;1.30;;;;;;;11.56;68.49;99163.75;5014727;27;96760;-81
2023/12/26 03:04:47;;;;;;;1.38;1.00;;;;;;;11.51;68.85;99157.91;5035665;27;97387;-84
2023/12/26 03:07:13;;;;;;;1.17;0.90;;;;;;;11.45;69.00;99147.75;5032658;27;98585;-84
2023/12/26 03:09:39;;;;;;;1.40;1.10;;;;;;;11.52;68.54;99149.13;5018291;27;100832;-84
2023/12/26 03:12:05;;;;;;;1.58;1.00;;;;;;;11.47;68.80;99152.00;5035344;27;97286;-82
2023/12/26 03:14:30;;;;;;;1.35;0.88;;;;;;;11.44;68.74;99138.19;5036086;27;97317;-81
2023/12/26 03:16:56;;;;;;;1.13;0.93;;;;;;;11.43;69.11;99125.97;5016356;27;101022;-82
2023/12/26 03:19:21;;;;;;;2.67;1.05;;;;;;;11.49;68.82;99128.22;5001312;27;101425;-81
2023/12/26 03:21:47;;;;;;;1.88;0.80;;;;;;;11.42;68.44;99103.25;5031824;27;96963;-82
2023/12/26 03:24:12;;;;;;;1.80;1.20;;;;;;;11.57;68.14;99129.50;5008137;27;96755;-82
2023/12/26 03:26:38;;;;;;;1.90;1.33;;;;;;;11.57;68.22;99121.59;5016389;27;101284;-81
2023/12/26 03:29:03;;;;;;;1.83;1.10;;;;;;;11.61;68.38;99129.34;5052749;27;97950;-82
2023/12/26 03:31:30;;;;;;;2.25;1.30;;;;;;;11.45;68.60;99111.81;5017821;27;97263;-81
2023/12/26 03:33:56;;;;;;;2.20;1.17;;;;;;;11.55;68.26;99107.72;5018168;27;96853;-81
2023/12/26 03:36:21;;;;;;;1.23;0.82;;;;;;;11.62;68.44;99121.34;5016812;27;101260;-82
2023/12/26 03:38:47;;;;;;;1.73;1.00;;;;;;;11.65;68.52;99120.34;5017801;27;100883;-82
2023/12/26 03:41:13;;;;;;;1.38;0.88;;;;;;;11.64;68.16;99119.50;5034830;27;97226;-82
2023/12/26 03:43:39;;;;;;;3.13;0.77;;;;;;;11.57;68.06;99124.22;5034601;27;97007;-81
2023/12/26 03:46:04;;;;;;;1.08;0.80;;;;;;;11.56;68.31;99111.19;5014372;27;100760;-82
2023/12/26 03:48:31;;;;;;;0.47;0.47;;;;;;;11.54;68.00;99103.38;5034186;27;100970;-82
2023/12/26 03:50:57;;;;;;;1.13;0.68;;;;;;;11.51;67.99;99085.16;5033708;27;96955;-82
2023/12/26 03:53:22;;;;;;;1.15;0.82;;;;;;;11.68;68.27;99107.03;5017917;27;96900;-82
2023/12/26 03:55:48;;;;;;;0.52;0.52;;;;;;;11.70;67.72;99094.63;5033274;27;100806;-82
2023/12/26 03:58:15;;;;;;;0.60;0.50;;;;;;;11.67;68.04;99094.81;5017122;27;101650;-82
2023/12/26 04:00:40;;;;;;;3.17;0.60;;;;;;;11.69;67.13;99093.81;5033880;27;97301;-82
2023/12/26 04:03:06;;;;;;;0.80;0.45;;;;;;;11.57;67.40;99089.22;5034887;27;96977;-82
2023/12/26 04:05:31;;;;;;;1.27;0.65;;;;;;;11.55;67.86;99077.97;5034026;27;97998;-82
2023/12/26 04:07:57;;;;;;;0.60;0.60;;;;;;;11.68;67.07;99093.88;5013706;28;98485;-81
2023/12/26 04:10:22;;;;;;;1.13;0.82;;;;;;;11.72;67.45;99076.97;5027979;27;96989;-82
2023/12/26 04:12:48;;;;;;;0.88;0.65;;;;;;;11.65;67.20;99073.03;5017202;27;98134;-82
2023/12/26 04:15:13;;;;;;;0.70;0.50;;;;;;;11.60;67.00;99077.69;5014426;27;101510;-81
2023/12/26 04:17:39;;;;;;;2.00;0.55;;;;;;;11.59;67.32;99068.13;5016588;27;97842;-81
2023/12/26 04:20:06;;;;;;;0.43;0.43;;;;;;;11.62;67.29;99062.69;5034210;27;97354;-81
2023/12/26 04:22:31;;;;;;;0.65;0.47;;;;;;;11.68;67.22;99068.44;5032866;27;98123;-81
2023/12/26 04:24:57;;;;;;;0.88;0.60;;;;;;;11.69;67.16;99072.78;5017005;27;101023;-81
2023/12/26 04:27:22;;;;;;;0.60;0.50;;;;;;;11.65;67.27;99057.25;5032978;27;97934;-82
2023/12/26 04:29:48;;;;;;;0.80;0.47;;;;;;;11.71;67.23;99059.53;5000673;27;96740;-81
2023/12/26 04:32:14;;;;;;;0.57;0.40;;;;;;;11.78;67.15;99052.97;5030702;27;96918;-82
2023/12/26 04:34:39;;;;;;;0.77;0.43;;;;;;;11.77;66.69;99046.84;5011368;27;101224;-81
2023/12/26 04:37:05;;;;;;;1.25;0.50;;;;;;;11.73;67.06;99040.09;5051026;27;97472;-82
2023/12/26 04:39:31;;;;;;;0.70;0.57;;;;;;;11.54;67.15;99016.66;5033909;27;97244;-81
2023/12/26 04:41:57;;;;;;;1.70;0.90;;;;;;;11.73;66.38;99042.72;5016687;27;97994;-82
2023/12/26 04:44:23;;;;;;;1.35;0.38;;;;;;;11.70;66.84;99018.41;5033925;27;98196;-82
2023/12/26 04:46:50;;;;;;;1.60;0.88;;;;;;;11.79;66.60;99025.75;5051111;27;97732;-82
2023/12/26 04:49:16;;;;;;;0.65;0.60;;;;;;;11.78;66.32;99040.69;5017095;27;96871;-82
2023/12/26 04:51:41;;;;;;;1.30;0.70;;;;;;;11.77;66.19;99038.13;4999726;27;96842;-82
2023/12/26 04:54:07;;;;;;;0.90;0.43;;;;;;;11.81;66.29;99033.53;5016313;27;101382;-82
2023/12/26 04:56:32;;;;;;;1.10;0.60;;;;;;;11.81;66.38;99033.53;5032583;27;101248;-81
2023/12/26 04:58:58;;;;;;;2.70;0.80;;;;;;;11.82;66.46;99035.25;5015824;27;96730;-82
2023/12/26 05:01:23;;;;;;;1.48;0.90;;;;;;;11.76;66.41;99041.69;5033744;27;96927;-82
2023/12/26 05:03:49;;;;;;;0.50;0.50;;;;;;;11.79;66.54;99034.47;5014000;27;101358;-82
2023/12/26 05:06:18;;;;;;;0.98;0.77;;;;;;;11.80;66.47;99053.72;5032380;27;97992;-81
2023/12/26 05:08:44;;;;;;;0.68;0.55;;;;;;;11.78;66.22;99052.97;5014389;27;96837;-81
2023/12/26 05:11:21;;;;;;;1.50;0.73;;;;;;;11.81;65.96;99039.66;5016179;27;97362;-81
2023/12/26 05:13:46;;;;;;;2.10;0.82;;;;;;;11.88;66.09;99042.78;5033658;27;97488;-82
2023/12/26 05:16:12;;;;;;;1.20;0.70;;;;;;;11.82;65.95;99043.13;5015692;27;101386;-82
2023/12/26 05:18:37;;;;;;;1.42;0.60;;;;;;;11.86;65.88;99039.41;5015324;27;96846;-82
2023/12/26 05:21:03;;;;;;;1.40;0.82;;;;;;;11.78;65.71;99037.22;5032715;27;96874;-80
2023/12/26 05:23:29;;;;;;;0.70;0.50;;;;;;;11.68;65.93;99010.59;5031852;27;100040;-82
2023/12/26 05:25:58;;;;;;;0.80;0.40;;;;;;;11.82;65.84;99041.34;5032051;27;101324;-82
2023/12/26 05:28:23;;;;;;;1.27;0.60;;;;;;;11.79;66.15;99045.00;5015498;27;96794;-82
2023/12/26 05:30:49;;;;;;;1.23;0.60;;;;;;;11.82;66.13;99029.97;5012617;28;97422;-82
2023/12/26 05:33:14;;;;;;;0.40;0.40;;;;;;;11.89;65.69;99049.72;5022574;27;98039;-81
2023/12/26 05:35:40;;;;;;;0.85;0.70;;;;;;;11.93;65.71;99053.88;5015117;27;101500;-81
2023/12/26 05:38:05;;;;;;;0.52;0.30;;;;;;;11.88;66.02;99053.31;5015635;27;96901;-82
2023/12/26 05:40:31;;;;;;;1.17;0.47;;;;;;;11.79;66.19;99047.63;5016167;27;96897;-81
2023/12/26 05:42:57;;;;;;;0.50;0.40;;;;;;;11.85;65.78;99053.47;5033410;27;98003;-82
2023/12/26 05:45:24;;;;;;;0.82;0.50;;;;;;;11.86;66.18;99052.53;5018842;27;100970;-81
2023/12/26 05:47:49;;;;;;;1.20;0.60;;;;;;;11.81;66.15;99049.31;5018466;27;96897;-81
2023/12/26 05:50:17;;;;;;;0.98;0.52;;;;;;;11.83;65.99;99060.59;5019414;27;96802;-81
2023/12/26 05:52:42;;;;;;;0.70;0.50;;;;;;;11.85;66.18;99069.22;5019054;27;100826;-82
2023/12/26 05:55:08;;;;;;;1.88;0.38;;;;;;;11.82;66.13;99053.63;5019394;27;101209;-81
2023/12/26 05:57:34;;;;;;;0.73;0.50;;;;;;;11.85;65.88;99069.22;5018362;27;98206;-82
2023/12/26 05:59:59;;;;;;;1.38;0.65;;;;;;;11.79;66.55;99062.56;5036673;27;96911;-81
2023/12/26 06:02:26;;;;;;;0.60;0.43;;;;;;;11.83;66.72;99063.22;5018704;27;101478;-82
2023/12/26 06:04:51;;;;;;;0.88;0.50;;;;;;;11.86;67.23;99068.31;5019747;27;101571;-81
2023/12/26 06:07:18;;;;;;;0.50;0.43;;;;;;;11.62;67.87;99046.91;5018426;27;96725;-81
2023/12/26 06:09:44;;;;;;;0.60;0.43;;;;;;;11.78;68.27;99066.13;5016148;28;97390;-82
2023/12/26 06:12:10;;;;;;;0.65;0.40;;;;;;;11.77;68.67;99059.16;5015128;27;100945;-82
2023/12/26 06:14:35;;;;;;;0.77;0.40;;;;;;;11.82;68.83;99064.16;5002376;27;101070;-81
2023/12/26 06:17:01;;;;;;;1.27;0.43;;;;;;;11.76;69.44;99062.72;5018646;27;96772;-81
2023/12/26 06:19:27;;;;;;;1.10;0.55;;;;;;;11.85;69.26;99067.47;5036111;27;96806;-81
2023/12/26 06:21:52;;;;;;;0.85;0.38;;;;;;;11.82;69.55;99061.53;5018297;27;101369;-82
2023/12/26 06:24:18;;;;;;;2.75;0.50;;;;;;;11.76;70.02;99063.56;5035746;27;100769;-82
2023/12/26 06:26:44;;;;;;;0.82;0.50;;;;;;;11.78;69.47;99069.59;5018266;27;97402;-82
2023/12/26 06:29:09;;;;;;;0.82;0.30;;;;;;;11.86;69.23;99058.63;5036315;27;96847;-81
2023/12/26 06:31:35;;;;;;;1.63;0.55;;;;;;;11.85;69.10;99074.50;5018103;27;101521;-82
2023/12/26 06:34:00;;;;;;;0.95;0.60;;;;;;;11.89;69.00;99074.22;5015240;28;101284;-81
2023/12/26 06:36:30;;;;;;;1.00;0.60;;;;;;;11.79;69.37;99070.44;5031579;27;97226;-82
2023/12/26 06:39:00;;;;;;;1.52;0.65;;;;;;;11.89;69.01;99076.88;5036016;27;97058;-82
2023/12/26 06:41:27;;;;;;;0.57;0.40;;;;;;;11.88;68.69;99075.19;5018214;27;101455;-82
2023/12/26 06:43:53;;;;;;;1.08;0.68;;;;;;;11.88;68.60;99069.09;5018433;27;101104;-82
2023/12/26 06:46:19;;;;;;;1.38;0.50;;;;;;;11.86;68.80;99074.41;5017798;27;97282;-82
2023/12/26 06:48:44;;;;;;;1.33;0.60;;;;;;;11.87;69.11;99072.63;5002296;27;96917;-82
2023/12/26 06:51:10;;;;;;;1.23;0.68;;;;;;;11.89;68.10;99065.50;5032420;27;99408;-82
2023/12/26 06:53:35;;;;;;;1.02;0.60;;;;;;;11.79;68.57;99073.06;5035939;27;97820;-82
2023/12/26 06:56:03;;;;;;;1.33;1.23;;;;;;;11.78;68.68;99068.75;4997482;28;96830;-82
2023/12/26 06:58:29;;;;;;;0.70;0.55;;;;;;;11.82;68.35;99074.69;5006834;28;97378;-82
2023/12/26 07:00:55;;;;;;;1.52;0.60;;;;;;;11.78;68.58;99066.97;5034080;27;101848;-81
2023/12/26 07:03:20;;;;;;;2.25;0.45;;;;;;;11.80;68.49;99082.63;5035025;27;101499;-82
2023/12/26 07:05:47;;;;;;;0.93;0.77;;;;;;;11.68;68.04;99086.00;5017635;27;97255;-81
2023/12/26 07:08:12;;;;;;;0.80;0.60;;;;;;;11.77;68.96;99083.66;5018615;27;96903;-82
2023/12/26 07:10:38;;;;;;;1.15;0.82;;;;;;;11.70;68.50;99092.84;5034787;27;97235;-82
2023/12/26 07:13:03;;;;;;;4.45;0.80;;;;;;;11.82;68.03;99087.81;5034733;27;101160;-82
2023/12/26 07:15:29;;;;;;;0.82;0.63;;;;;;;11.72;68.11;99083.09;5018476;27;97000;-82
2023/12/26 07:17:55;;;;;;;0.65;0.65;;;;;;;11.79;68.18;99102.84;5036132;27;97313;-81
2023/12/26 07:20:20;;;;;;;1.08;0.80;;;;;;;11.81;67.80;99097.50;5034982;27;97435;-81
2023/12/26 07:22:46;;;;;;;2.47;0.80;;;;;;;11.78;68.26;99103.78;5024565;28;97452;-82
2023/12/26 07:25:11;;;;;;;0.98;0.75;;;;;;;11.63;68.12;99091.50;5031994;27;96760;-82
2023/12/26 07:27:37;;;;;;;0.70;0.50;;;;;;;11.85;68.06;99108.69;5013550;28;97472;-82
2023/12/26 07:30:02;;;;;;;2.22;1.38;;;;;;;11.86;67.90;99115.66;5015147;27;97483;-80
2023/12/26 07:32:28;;;;;;;1.60;1.25;;;;;;;11.67;67.61;99098.28;5014451;28;97398;-81
2023/12/26 07:34:54;;;;;;;1.60;0.77;;;;;;;11.71;67.71;99097.16;5031772;27;96832;-82
2023/12/26 07:37:19;;;;;;;0.98;0.60;;;;;;;11.80;67.66;99111.56;5034400;27;96801;-82
2023/12/26 07:39:45;;;;;;;1.00;0.70;;;;;;;11.79;68.01;99123.03;5017676;27;97524;-82
2023/12/26 07:42:10;;;;;;;0.90;0.73;;;;;;;11.70;67.69;99108.63;5017228;27;100766;-81
2023/12/26 07:44:37;;;;;;;0.82;0.70;;;;;;;11.87;67.44;99125.22;5018141;27;96889;-83
2023/12/26 07:47:03;;;;;;;1.02;0.80;;;;;;;11.78;67.32;99130.06;5034248;27;96755;-80
2023/12/26 07:49:28;;;;;;;1.27;0.80;;;;;;;11.64;67.94;99114.25;5034082;27;100764;-82
2023/12/26 07:51:53;;;;;;;0.80;0.73;;;;;;;11.69;67.32;99113.97;5016915;27;101010;-82
2023/12/26 07:54:19;;;;;;;1.38;1.00;;;;;;;11.87;67.37;99144.50;5035131;27;97003;-82
2023/12/26 07:56:44;;;;;;;1.95;1.08;;;;;;;11.71;66.82;99135.75;5033982;27;96916;-82
2023/12/26 07:59:10;;;;;;;3.13;1.92;;;;;;;11.91;66.70;99159.16;5034090;27;98117;-80
2023/12/26 08:01:36;;;;;;;4.20;1.30;;;;;;;11.87;67.10;99160.28;5034150;27;97386;-81
2023/12/26 08:04:01;;;;;;;2.22;1.23;;;;;;;11.89;66.88;99166.28;5034591;27;96761;-81
2023/12/26 08:06:27;;;;;;;3.30;1.42;;;;;;;12.04;66.53;99158.44;5008987;27;96949;-82
2023/12/26 08:08:53;;;;;;;1.17;0.90;;;;;;;11.95;66.45;99158.03;5037825;27;97692;-84
2023/12/26 08:11:19;;;;;;;2.47;0.88;;;;;;;11.96;65.94;99172.03;5027014;27;100990;-82
2023/12/26 08:13:45;;;;;;;1.60;1.10;;;;;;;11.95;65.98;99165.91;5021371;27;97217;-82
2023/12/26 08:16:10;;;;;;;2.53;1.15;;;;;;;12.06;65.88;99167.09;4997543;27;98290;-82
2023/12/26 08:18:36;;;;;;;2.47;1.00;;;;;;;11.91;66.36;99150.41;5041645;27;98541;-81
2023/12/26 08:21:02;;;;;;;1.80;1.08;;;;;;;12.07;66.21;99177.53;5026128;27;101200;-82
2023/12/26 08:23:28;;;;;;;1.55;1.15;;;;;;;11.98;65.87;99170.16;5028892;27;96882;-82
2023/12/26 08:25:55;;;;;;;1.67;1.20;;;;;;;12.15;65.72;99198.13;5007462;28;97290;-82
2023/12/26 08:28:21;;;;;;;1.75;1.08;;;;;;;12.05;65.38;99174.13;5017981;27;98197;-81
2023/12/26 08:30:46;;;;;;;1.75;1.08;;;;;;;12.12;65.43;99199.13;5016405;28;98456;-82
2023/12/26 08:33:14;;;;;;;2.10;1.08;;;;;;;12.11;65.61;99207.97;5010352;27;96855;-82
2023/12/26 08:35:40;;;;;;;1.85;1.08;;;;;;;12.15;65.34;99206.84;5015514;28;97258;-82
2023/12/26 08:38:06;;;;;;;1.52;1.23;;;;;;;12.09;65.35;99211.63;5016826;27;98084;-82
2023/12/26 08:40:32;;;;;;;1.73;1.02;;;;;;;12.04;65.79;99211.03;5005224;27;101578;-84
2023/12/26 08:42:57;;;;;;;1.77;1.00;;;;;;;12.07;65.47;99224.88;5015310;27;97368;-82
2023/12/26 08:45:23;;;;;;;1.75;1.13;;;;;;;12.12;64.71;99225.44;5031707;27;97308;-82
2023/12/26 08:47:49;;;;;;;1.27;0.90;;;;;;;12.18;65.09;99226.88;5016856;27;97433;-82
2023/12/26 08:50:15;;;;;;;3.00;1.70;;;;;;;12.13;64.95;99224.53;5031116;28;97381;-82
2023/12/26 08:52:41;;;;;;;2.10;1.20;;;;;;;12.12;65.02;99233.31;5032871;28;96987;-81
2023/12/26 08:55:06;;;;;;;5.85;3.47;;;;;;;12.11;64.70;99207.97;5033677;28;96902;-81
2023/12/26 08:57:32;;;;;;;1.33;0.98;;;;;;;12.16;64.57;99240.13;5022835;28;97554;-82
2023/12/26 08:59:59;;;;;;;13.80;7.20;;;;;;;12.03;64.52;99220.72;5012238;28;97407;-82
2023/12/26 09:02:25;;;;;;;2.00;1.33;;;;;;;12.24;64.13;99242.28;4999835;28;97370;-84
2023/12/26 09:04:50;;;;;;;2.78;1.30;;;;;;;12.23;64.54;99249.34;5020528;28;97587;-84
2023/12/26 09:07:16;;;;;;;5.00;2.15;;;;;;;12.11;63.87;99233.44;4997187;28;101250;-83
2023/12/26 09:09:41;;;;;;;3.45;1.92;;;;;;;12.30;63.60;99259.50;5014199;28;97396;-83
2023/12/26 09:12:07;;;;;;;2.75;1.27;;;;;;;12.21;63.76;99260.91;4999985;28;96813;-83
2023/12/26 09:14:34;;;;;;;3.33;1.48;;;;;;;12.12;63.66;99249.13;5018325;28;96814;-83
2023/12/26 09:17:00;;;;;;;2.85;1.33;;;;;;;12.26;63.25;99268.53;5007489;28;97867;-83
2023/12/26 09:19:28;;;;;;;2.30;1.08;;;;;;;12.09;62.97;99253.72;5006346;28;98089;-83
2023/12/26 09:21:54;;;;;;;1.35;0.70;;;;;;;12.14;63.27;99264.81;5020778;28;96986;-83
2023/12/26 09:24:19;;;;;;;1.85;1.00;;;;;;;12.17;63.08;99269.91;5001220;28;97073;-83
2023/12/26 09:26:45;;;;;;;2.22;1.08;;;;;;;12.17;62.66;99283.91;5004684;28;101502;-83
2023/12/26 09:29:10;;;;;;;1.08;0.80;;;;;;;12.12;62.19;99253.53;5010479;28;97530;-82
2023/12/26 09:31:36;;;;;;;1.55;0.90;;;;;;;12.22;61.72;99281.88;5008121;28;96801;-83
2023/12/26 09:34:01;;;;;;;1.08;0.65;;;;;;;12.18;61.45;99276.84;5020056;27;97715;-84
2023/12/26 09:36:27;;;;;;;1.52;0.80;;;;;;;12.24;61.85;99282.59;5016571;28;97424;-82
2023/12/26 09:38:53;;;;;;;2.00;0.90;;;;;;;12.31;61.88;99287.53;5000917;28;97955;-84
2023/12/26 09:41:23;;;;;;;2.15;1.10;;;;;;;12.31;61.29;99292.81;5018547;28;97299;-84
2023/12/26 09:43:49;;;;;;;1.88;1.10;;;;;;;12.20;61.43;99270.56;4996774;28;96780;-83
2023/12/26 09:46:14;;;;;;;0.98;0.70;;;;;;;12.34;61.71;99290.84;5009010;28;97629;-83
2023/12/26 09:48:40;;;;;;;0.93;0.75;;;;;;;12.36;61.47;99288.09;5005636;28;100846;-86
2023/12/26 09:51:08;;;;;;;1.33;0.82;;;;;;;12.34;61.20;99282.09;5000068;28;97556;-83
2023/12/26 09:53:35;;;;;;;2.25;0.88;;;;;;;12.46;61.50;99287.50;4985536;28;96887;-83
2023/12/26 09:56:01;;;;;;;1.60;0.80;;;;;;;12.41;61.00;99293.97;4988992;28;97450;-83
2023/12/26 09:58:27;;;;;;;0.93;0.73;;;;;;;12.38;61.13;99279.19;4994634;28;97954;-84
2023/12/26 10:00:53;;;;;;;0.82;0.60;;;;;;;12.45;61.39;99295.50;4992126;28;96757;-83
2023/12/26 10:03:19;;;;;;;2.13;0.80;;;;;;;12.44;61.22;99291.16;4979694;28;96917;-83
2023/12/26 10:05:44;;;;;;;0.73;0.43;;;;;;;12.44;61.04;99297.25;4993834;28;97478;-84
2023/12/26 10:08:10;;;;;;;1.42;0.90;;;;;;;12.49;61.23;99304.91;4992488;28;98041;-83
2023/12/26 10:10:36;;;;;;;1.17;0.73;;;;;;;12.40;61.14;99300.16;4990687;28;97389;-84
2023/12/26 10:13:02;;;;;;;1.08;0.85;;;;;;;12.43;61.31;99298.19;4970708;28;98169;-84
2023/12/26 10:15:27;;;;;;;1.58;0.80;;;;;;;12.51;60.62;99313.56;4972127;28;100875;-84
2023/12/26 10:17:55;;;;;;;1.48;1.00;;;;;;;12.53;60.53;99316.09;4971814;28;101352;-84
2023/12/26 10:20:20;;;;;;;0.70;0.70;;;;;;;12.30;60.57;99276.16;4988818;28;98457;-84
2023/12/26 10:22:46;;;;;;;1.58;0.80;;;;;;;12.51;60.79;99308.28;4986885;28;97654;-83
2023/12/26 10:25:13;;;;;;;2.20;1.15;;;;;;;12.52;60.10;99319.66;4989663;28;100596;-81
2023/12/26 10:27:39;;;;;;;1.50;0.95;;;;;;;12.50;60.90;99324.16;4987507;28;101968;-84
2023/12/26 10:30:05;;;;;;;1.27;0.80;;;;;;;12.65;60.55;99331.16;4991975;28;96796;-81
2023/12/26 10:32:31;;;;;;;1.67;0.90;;;;;;;12.50;60.31;99297.84;5006311;28;97134;-82
2023/12/26 10:35:11;;;;;;;1.25;0.93;;;;;;;12.47;60.40;99322.56;5010440;28;97536;-82
2023/12/26 10:37:37;;;;;;;1.75;1.10;;;;;;;12.61;60.88;99333.13;5003792;28;97713;-82
2023/12/26 10:40:04;;;;;;;1.67;0.90;;;;;;;12.51;60.94;99321.47;4970052;28;96731;-81
2023/12/26 10:42:31;;;;;;;1.20;0.70;;;;;;;12.58;60.31;99335.09;4982600;28;97681;-81
2023/12/26 10:45:00;;;;;;;4.05;0.80;;;;;;;12.58;60.31;99341.22;5009465;28;97614;-81
2023/12/26 10:47:28;;;;;;;2.53;0.60;;;;;;;12.61;60.12;99334.94;4989677;28;98406;-81
2023/12/26 10:49:55;;;;;;;0.60;0.45;;;;;;;12.63;60.39;99349.69;4978686;27;97155;-81
2023/12/26 10:52:22;;;;;;;1.42;0.95;;;;;;;12.63;59.99;99344.44;5015361;27;97462;-84
2023/12/26 10:54:49;;;;;;;2.20;0.80;;;;;;;12.59;60.34;99344.69;5014468;28;101061;-88
2023/12/26 10:57:16;;;;;;;3.20;0.60;;;;;;;12.61;60.24;99335.75;5013254;27;101642;-84
2023/12/26 10:59:41;;;;;;;0.98;0.70;;;;;;;12.63;60.08;99362.03;5021464;28;96948;-87
2023/12/26 11:02:07;;;;;;;1.25;0.80;;;;;;;12.41;60.22;99323.75;5019441;27;97327;-87
2023/12/26 11:04:33;;;;;;;1.60;1.10;;;;;;;12.66;60.39;99364.47;5020570;28;98462;-86
2023/12/26 11:06:59;;;;;;;1.55;0.98;;;;;;;12.65;60.71;99379.44;5020449;27;97414;-86
2023/12/26 11:09:24;;;;;;;1.83;1.00;;;;;;;12.63;60.65;99375.19;5024517;27;96925;-84
2023/12/26 11:11:50;;;;;;;1.38;0.70;;;;;;;12.60;60.55;99375.34;5041433;27;98239;-85
2023/12/26 11:14:16;;;;;;;1.20;0.70;;;;;;;12.10;60.80;99335.19;5027765;27;97910;-81
2023/12/26 11:16:42;;;;;;;2.03;1.20;;;;;;;12.54;62.42;99420.47;5012929;27;97469;-83
2023/12/26 11:19:08;;;;;;;2.45;0.68;;;;;;;12.38;64.79;99434.47;5029109;27;96795;-85
2023/12/26 11:21:34;;;;;;;1.55;0.80;;;;;;;12.14;66.04;99427.94;5024911;27;96999;-84
2023/12/26 11:24:00;;;;;;;1.73;0.70;;;;;;;12.07;66.40;99448.47;5020638;27;98573;-83
2023/12/26 11:26:27;;;;;;;1.77;0.80;;;;;;;12.08;67.10;99467.72;5026849;27;97328;-85